AAL7 KDCA-KPWM
Flight info
| Callsign | AAL7 |
|---|---|
| Flight time | 1h 10m |
| Altitude | 39000 |
| Route | SOOKI6 SWANN BROSS Q419 RBV Q22 LLUND BDR SCOGS3 |
| Aircraft | A319/M-SDE3FGHIRWY/LB1 |
Departure
| Time | 2026-05-03 21:41 |
|---|---|
| Airport | Ronald Reagan Washington National Airport (KDCA) |
Arrival
| Time | 2026-05-03 22:52 |
|---|---|
| Airport | Portland International Jetport (KPWM) |
| Time | Latitude | Longitude | Altitude | Speed | Heading |
|---|---|---|---|---|---|
| 2026-05-03 21:05 | 38.85482 | -77.04101 | 24 ft | 0 kts | 213° |
| 2026-05-03 21:27 | 38.85484 | -77.04100 | 24 ft | 1 kts | 213° |
| 2026-05-03 21:27 | 38.85499 | -77.04088 | 25 ft | 3 kts | 212° |
| 2026-05-03 21:28 | 38.85515 | -77.04073 | 24 ft | 3 kts | 214° |
| 2026-05-03 21:28 | 38.85532 | -77.04062 | 26 ft | 3 kts | 183° |
| 2026-05-03 21:28 | 38.85542 | -77.04061 | 24 ft | 3 kts | 111° |
| 2026-05-03 21:28 | 38.85543 | -77.04067 | 24 ft | 1 kts | 73° |
| 2026-05-03 21:29 | 38.85539 | -77.04086 | 25 ft | 2 kts | 73° |
| 2026-05-03 21:29 | 38.85538 | -77.04089 | 28 ft | 0 kts | 73° |
| 2026-05-03 21:30 | 38.85541 | -77.04077 | 27 ft | 1 kts | 73° |
| 2026-05-03 21:30 | 38.85538 | -77.04045 | 26 ft | 6 kts | 117° |
| 2026-05-03 21:31 | 38.85486 | -77.04012 | 24 ft | 11 kts | 166° |
| 2026-05-03 21:31 | 38.85400 | -77.04000 | 24 ft | 14 kts | 175° |
| 2026-05-03 21:31 | 38.85305 | -77.03939 | 24 ft | 17 kts | 163° |
| 2026-05-03 21:31 | 38.85182 | -77.03921 | 24 ft | 16 kts | 173° |
| 2026-05-03 21:32 | 38.85065 | -77.03906 | 24 ft | 18 kts | 176° |
| 2026-05-03 21:32 | 38.84933 | -77.03892 | 24 ft | 20 kts | 175° |
| 2026-05-03 21:32 | 38.84821 | -77.03879 | 26 ft | 16 kts | 174° |
| 2026-05-03 21:32 | 38.84704 | -77.03865 | 27 ft | 18 kts | 175° |
| 2026-05-03 21:33 | 38.84575 | -77.03851 | 28 ft | 14 kts | 175° |
| 2026-05-03 21:33 | 38.84470 | -77.03842 | 25 ft | 16 kts | 177° |
| 2026-05-03 21:33 | 38.84387 | -77.03836 | 27 ft | 11 kts | 176° |
| 2026-05-03 21:33 | 38.84324 | -77.03844 | 25 ft | 6 kts | 206° |
| 2026-05-03 21:34 | 38.84278 | -77.03876 | 25 ft | 9 kts | 207° |
| 2026-05-03 21:34 | 38.84235 | -77.03889 | 24 ft | 3 kts | 175° |
| 2026-05-03 21:34 | 38.84234 | -77.03889 | 24 ft | 0 kts | 175° |
| 2026-05-03 21:36 | 38.84228 | -77.03882 | 24 ft | 2 kts | 140° |
| 2026-05-03 21:36 | 38.84221 | -77.03869 | 24 ft | 0 kts | 126° |
| 2026-05-03 21:36 | 38.84216 | -77.03858 | 24 ft | 0 kts | 120° |
| 2026-05-03 21:37 | 38.84209 | -77.03842 | 26 ft | 3 kts | 120° |
| 2026-05-03 21:37 | 38.84201 | -77.03824 | 26 ft | 4 kts | 120° |
| 2026-05-03 21:37 | 38.84189 | -77.03794 | 24 ft | 0 kts | 114° |
| 2026-05-03 21:38 | 38.84188 | -77.03788 | 24 ft | 2 kts | 111° |
| 2026-05-03 21:39 | 38.84180 | -77.03751 | 24 ft | 6 kts | 104° |
| 2026-05-03 21:39 | 38.84183 | -77.03691 | 24 ft | 8 kts | 50° |
| 2026-05-03 21:39 | 38.84210 | -77.03684 | 24 ft | 0 kts | 351° |
| 2026-05-03 21:40 | 38.84277 | -77.03693 | 24 ft | 38 kts | 355° |
| 2026-05-03 21:40 | 38.84810 | -77.03751 | 24 ft | 115 kts | 355° |
| 2026-05-03 21:41 | 38.85452 | -77.03827 | 33 ft | 161 kts | 346° |
| 2026-05-03 21:41 | 38.86589 | -77.04043 | 671 ft | 163 kts | 339° |
| 2026-05-03 21:41 | 38.87593 | -77.04624 | 1631 ft | 156 kts | 321° |
| 2026-05-03 21:41 | 38.88456 | -77.05497 | 2337 ft | 163 kts | 318° |
| 2026-05-03 21:42 | 38.89398 | -77.06487 | 2751 ft | 186 kts | 318° |
| 2026-05-03 21:42 | 38.90300 | -77.07808 | 3161 ft | 211 kts | 297° |
| 2026-05-03 21:42 | 38.90992 | -77.09594 | 3757 ft | 235 kts | 297° |
| 2026-05-03 21:42 | 38.92052 | -77.11253 | 4654 ft | 249 kts | 322° |
| 2026-05-03 21:43 | 38.93520 | -77.12459 | 5772 ft | 251 kts | 326° |
| 2026-05-03 21:43 | 38.95019 | -77.13641 | 6876 ft | 254 kts | 329° |
| 2026-05-03 21:43 | 38.96648 | -77.14572 | 7861 ft | 262 kts | 343° |
| 2026-05-03 21:43 | 38.98494 | -77.14667 | 8887 ft | 272 kts | 5° |
| 2026-05-03 21:44 | 39.00300 | -77.13842 | 9896 ft | 284 kts | 26° |
| 2026-05-03 21:44 | 39.01885 | -77.12309 | 10774 ft | 291 kts | 34° |
| 2026-05-03 21:44 | 39.03327 | -77.10368 | 11607 ft | 304 kts | 49° |
| 2026-05-03 21:44 | 39.04351 | -77.07912 | 12232 ft | 326 kts | 65° |
| 2026-05-03 21:45 | 39.04876 | -77.04951 | 12582 ft | 352 kts | 78° |
| 2026-05-03 21:45 | 39.05261 | -77.01833 | 13221 ft | 361 kts | 78° |
| 2026-05-03 21:45 | 39.05660 | -76.98613 | 13948 ft | 368 kts | 78° |
| 2026-05-03 21:45 | 39.06074 | -76.95292 | 14630 ft | 374 kts | 78° |
| 2026-05-03 21:46 | 39.06495 | -76.91968 | 15300 ft | 379 kts | 78° |
| 2026-05-03 21:46 | 39.06925 | -76.88601 | 16016 ft | 384 kts | 78° |
| 2026-05-03 21:46 | 39.07354 | -76.85234 | 16703 ft | 389 kts | 78° |
| 2026-05-03 21:46 | 39.07793 | -76.81780 | 17372 ft | 394 kts | 78° |
| 2026-05-03 21:47 | 39.08237 | -76.78275 | 18049 ft | 399 kts | 78° |
| 2026-05-03 21:47 | 39.08685 | -76.74727 | 18677 ft | 404 kts | 78° |
| 2026-05-03 21:47 | 39.09152 | -76.71144 | 19281 ft | 408 kts | 77° |
| 2026-05-03 21:47 | 39.09663 | -76.67480 | 19896 ft | 412 kts | 76° |
| 2026-05-03 21:48 | 39.10191 | -76.63829 | 20482 ft | 416 kts | 76° |
| 2026-05-03 21:48 | 39.10731 | -76.60145 | 21080 ft | 421 kts | 76° |
| 2026-05-03 21:48 | 39.11263 | -76.56473 | 21670 ft | 425 kts | 76° |
| 2026-05-03 21:48 | 39.11792 | -76.52762 | 22249 ft | 429 kts | 76° |
| 2026-05-03 21:49 | 39.12315 | -76.48852 | 22855 ft | 434 kts | 78° |
| 2026-05-03 21:49 | 39.12772 | -76.44994 | 23455 ft | 438 kts | 78° |
| 2026-05-03 21:49 | 39.13196 | -76.41093 | 23982 ft | 442 kts | 79° |
| 2026-05-03 21:49 | 39.13611 | -76.37144 | 24457 ft | 446 kts | 79° |
| 2026-05-03 21:50 | 39.14029 | -76.33168 | 24916 ft | 450 kts | 79° |
| 2026-05-03 21:50 | 39.14451 | -76.29204 | 25367 ft | 454 kts | 79° |
| 2026-05-03 21:50 | 39.14898 | -76.25104 | 25832 ft | 458 kts | 79° |
| 2026-05-03 21:50 | 39.15352 | -76.21030 | 26289 ft | 462 kts | 78° |
| 2026-05-03 21:51 | 39.15818 | -76.16976 | 26734 ft | 465 kts | 78° |
| 2026-05-03 21:51 | 39.16298 | -76.12835 | 27166 ft | 469 kts | 78° |
| 2026-05-03 21:51 | 39.16788 | -76.08600 | 27566 ft | 475 kts | 78° |
| 2026-05-03 21:51 | 39.17270 | -76.04432 | 27979 ft | 478 kts | 78° |
| 2026-05-03 21:52 | 39.17767 | -76.00117 | 28417 ft | 482 kts | 78° |
| 2026-05-03 21:52 | 39.18367 | -75.95904 | 28919 ft | 482 kts | 72° |
| 2026-05-03 21:52 | 39.19424 | -75.91818 | 29436 ft | 478 kts | 62° |
| 2026-05-03 21:52 | 39.20925 | -75.88011 | 29887 ft | 474 kts | 52° |
| 2026-05-03 21:53 | 39.22838 | -75.84574 | 30267 ft | 470 kts | 43° |
| 2026-05-03 21:53 | 39.25097 | -75.81564 | 30599 ft | 465 kts | 33° |
| 2026-05-03 21:53 | 39.27560 | -75.78857 | 30929 ft | 466 kts | 32° |
| 2026-05-03 21:53 | 39.30052 | -75.76139 | 31229 ft | 470 kts | 32° |
| 2026-05-03 21:54 | 39.32559 | -75.73404 | 31527 ft | 473 kts | 32° |
| 2026-05-03 21:54 | 39.35080 | -75.70649 | 31884 ft | 475 kts | 32° |
| 2026-05-03 21:54 | 39.37599 | -75.67888 | 32394 ft | 474 kts | 32° |
| 2026-05-03 21:54 | 39.40109 | -75.65125 | 32861 ft | 474 kts | 32° |
| 2026-05-03 21:55 | 39.42621 | -75.62359 | 33288 ft | 474 kts | 32° |
| 2026-05-03 21:55 | 39.45131 | -75.59594 | 33714 ft | 474 kts | 32° |
| 2026-05-03 21:55 | 39.47642 | -75.56826 | 34111 ft | 475 kts | 32° |
| 2026-05-03 21:55 | 39.50162 | -75.54050 | 34433 ft | 476 kts | 32° |
| 2026-05-03 21:56 | 39.52683 | -75.51272 | 34740 ft | 477 kts | 32° |
| 2026-05-03 21:56 | 39.55212 | -75.48481 | 35029 ft | 478 kts | 32° |
| 2026-05-03 21:56 | 39.57746 | -75.45679 | 35347 ft | 480 kts | 33° |
| 2026-05-03 21:56 | 39.60290 | -75.42862 | 35633 ft | 481 kts | 33° |
| 2026-05-03 21:57 | 39.62835 | -75.40042 | 35917 ft | 482 kts | 33° |
| 2026-05-03 21:57 | 39.65387 | -75.37215 | 36203 ft | 483 kts | 33° |
| 2026-05-03 21:57 | 39.67942 | -75.34383 | 36478 ft | 484 kts | 33° |
| 2026-05-03 21:57 | 39.70475 | -75.31574 | 36741 ft | 485 kts | 34° |
| 2026-05-03 21:58 | 39.73071 | -75.28686 | 37022 ft | 485 kts | 34° |
| 2026-05-03 21:58 | 39.75610 | -75.25854 | 37281 ft | 486 kts | 34° |
| 2026-05-03 21:58 | 39.78175 | -75.22983 | 37533 ft | 488 kts | 35° |
| 2026-05-03 21:58 | 39.80560 | -75.19801 | 37773 ft | 495 kts | 43° |
| 2026-05-03 21:59 | 39.82831 | -75.16418 | 38006 ft | 496 kts | 43° |
| 2026-05-03 21:59 | 39.85107 | -75.13041 | 38233 ft | 496 kts | 43° |
| 2026-05-03 21:59 | 39.87383 | -75.09665 | 38455 ft | 497 kts | 43° |
| 2026-05-03 21:59 | 39.89668 | -75.06274 | 38656 ft | 498 kts | 44° |
| 2026-05-03 22:00 | 39.91947 | -75.02883 | 38812 ft | 498 kts | 44° |
| 2026-05-03 22:00 | 39.94225 | -74.99481 | 38956 ft | 499 kts | 44° |
| 2026-05-03 22:00 | 39.98521 | -74.92311 | 38980 ft | 505 kts | 52° |
| 2026-05-03 22:01 | 40.02410 | -74.84662 | 38975 ft | 505 kts | 52° |
| 2026-05-03 22:01 | 40.06303 | -74.77033 | 38981 ft | 505 kts | 52° |
| 2026-05-03 22:02 | 40.10199 | -74.69391 | 38966 ft | 505 kts | 52° |
| 2026-05-03 22:02 | 40.14056 | -74.61798 | 38988 ft | 505 kts | 52° |
| 2026-05-03 22:03 | 40.17924 | -74.54130 | 38986 ft | 505 kts | 53° |
| 2026-05-03 22:03 | 40.22402 | -74.47217 | 38986 ft | 493 kts | 34° |
| 2026-05-03 22:04 | 40.27701 | -74.41572 | 38980 ft | 491 kts | 33° |
| 2026-05-03 22:04 | 40.32998 | -74.35918 | 38998 ft | 491 kts | 33° |
| 2026-05-03 22:05 | 40.38296 | -74.30237 | 38984 ft | 492 kts | 34° |
| 2026-05-03 22:05 | 40.43600 | -74.24531 | 38964 ft | 492 kts | 34° |
| 2026-05-03 22:06 | 40.48897 | -74.18823 | 38982 ft | 492 kts | 34° |
| 2026-05-03 22:06 | 40.54136 | -74.13161 | 38971 ft | 492 kts | 34° |
| 2026-05-03 22:07 | 40.59395 | -74.07473 | 38958 ft | 491 kts | 34° |
| 2026-05-03 22:07 | 40.64685 | -74.01748 | 38962 ft | 492 kts | 34° |
| 2026-05-03 22:08 | 40.69963 | -73.96019 | 38972 ft | 491 kts | 34° |
| 2026-05-03 22:08 | 40.75229 | -73.90295 | 38947 ft | 491 kts | 34° |
| 2026-05-03 22:09 | 40.80491 | -73.84558 | 38944 ft | 491 kts | 34° |
| 2026-05-03 22:10 | 40.87747 | -73.74996 | 38948 ft | 499 kts | 54° |
| 2026-05-03 22:10 | 40.91343 | -73.67138 | 38933 ft | 499 kts | 56° |
| 2026-05-03 22:11 | 40.94933 | -73.59257 | 38926 ft | 500 kts | 56° |
| 2026-05-03 22:11 | 40.98532 | -73.51369 | 38924 ft | 500 kts | 56° |
| 2026-05-03 22:12 | 41.02128 | -73.43461 | 38936 ft | 500 kts | 56° |
| 2026-05-03 22:12 | 41.05696 | -73.35552 | 38932 ft | 500 kts | 56° |
| 2026-05-03 22:13 | 41.09259 | -73.27638 | 38917 ft | 500 kts | 56° |
| 2026-05-03 22:13 | 41.12823 | -73.19723 | 38911 ft | 500 kts | 56° |
| 2026-05-03 22:14 | 41.16387 | -73.11786 | 38936 ft | 500 kts | 57° |
| 2026-05-03 22:14 | 41.20019 | -73.03918 | 38929 ft | 499 kts | 55° |
| 2026-05-03 22:15 | 41.23726 | -72.96140 | 38924 ft | 498 kts | 55° |
| 2026-05-03 22:15 | 41.27429 | -72.88344 | 38912 ft | 499 kts | 55° |
| 2026-05-03 22:16 | 41.31098 | -72.80495 | 38913 ft | 499 kts | 56° |
| 2026-05-03 22:16 | 41.34133 | -72.73962 | 38935 ft | 499 kts | 56° |
| 2026-05-03 22:17 | 41.38373 | -72.64824 | 38922 ft | 498 kts | 56° |
| 2026-05-03 22:17 | 41.42014 | -72.56975 | 38908 ft | 498 kts | 56° |
| 2026-05-03 22:18 | 41.45068 | -72.50388 | 38897 ft | 499 kts | 56° |
| 2026-05-03 22:18 | 41.48709 | -72.42504 | 38890 ft | 500 kts | 56° |
| 2026-05-03 22:19 | 41.52353 | -72.34589 | 38889 ft | 500 kts | 56° |
| 2026-05-03 22:19 | 41.55985 | -72.26670 | 38889 ft | 500 kts | 56° |
| 2026-05-03 22:20 | 41.59620 | -72.18740 | 38884 ft | 500 kts | 56° |
| 2026-05-03 22:20 | 41.63246 | -72.10789 | 38910 ft | 501 kts | 57° |
| 2026-05-03 22:21 | 41.66860 | -72.02838 | 38908 ft | 500 kts | 57° |
| 2026-05-03 22:21 | 41.70473 | -71.94887 | 38900 ft | 500 kts | 57° |
| 2026-05-03 22:22 | 41.74084 | -71.86919 | 38882 ft | 500 kts | 57° |
| 2026-05-03 22:22 | 41.77685 | -71.78959 | 38879 ft | 499 kts | 57° |
| 2026-05-03 22:23 | 41.81275 | -71.70995 | 38874 ft | 499 kts | 57° |
| 2026-05-03 22:23 | 41.84784 | -71.62964 | 38766 ft | 501 kts | 62° |
| 2026-05-03 22:23 | 41.86340 | -71.58754 | 37907 ft | 510 kts | 63° |
| 2026-05-03 22:24 | 41.87890 | -71.54471 | 37317 ft | 511 kts | 63° |
| 2026-05-03 22:24 | 41.89429 | -71.50160 | 36674 ft | 512 kts | 63° |
| 2026-05-03 22:24 | 41.90965 | -71.45833 | 36103 ft | 511 kts | 63° |
| 2026-05-03 22:24 | 41.92490 | -71.41548 | 35656 ft | 506 kts | 63° |
| 2026-05-03 22:25 | 41.94008 | -71.37304 | 35156 ft | 503 kts | 63° |
| 2026-05-03 22:25 | 41.95501 | -71.33137 | 34684 ft | 499 kts | 63° |
| 2026-05-03 22:25 | 41.97022 | -71.28892 | 34162 ft | 497 kts | 62° |
| 2026-05-03 22:25 | 41.98496 | -71.24770 | 33634 ft | 494 kts | 62° |
| 2026-05-03 22:26 | 41.99968 | -71.20642 | 33175 ft | 487 kts | 62° |
| 2026-05-03 22:26 | 42.01425 | -71.16542 | 32696 ft | 482 kts | 62° |
| 2026-05-03 22:26 | 42.02862 | -71.12491 | 32122 ft | 480 kts | 62° |
| 2026-05-03 22:26 | 42.04306 | -71.08422 | 31756 ft | 472 kts | 62° |
| 2026-05-03 22:27 | 42.05710 | -71.04460 | 31310 ft | 467 kts | 62° |
| 2026-05-03 22:27 | 42.07106 | -71.00537 | 30822 ft | 462 kts | 60° |
| 2026-05-03 22:27 | 42.08809 | -70.96932 | 30368 ft | 452 kts | 47° |
| 2026-05-03 22:27 | 42.10939 | -70.93984 | 29924 ft | 440 kts | 35° |
| 2026-05-03 22:28 | 42.13431 | -70.91704 | 29437 ft | 427 kts | 23° |
| 2026-05-03 22:28 | 42.16130 | -70.90150 | 28860 ft | 417 kts | 13° |
| 2026-05-03 22:28 | 42.18853 | -70.88901 | 28477 ft | 410 kts | 13° |
| 2026-05-03 22:28 | 42.21525 | -70.87660 | 28131 ft | 403 kts | 14° |
| 2026-05-03 22:29 | 42.24157 | -70.86430 | 27735 ft | 398 kts | 14° |
| 2026-05-03 22:29 | 42.26755 | -70.85209 | 27357 ft | 393 kts | 14° |
| 2026-05-03 22:29 | 42.29322 | -70.84001 | 26979 ft | 388 kts | 14° |
| 2026-05-03 22:29 | 42.31862 | -70.82808 | 26602 ft | 385 kts | 14° |
| 2026-05-03 22:30 | 42.34379 | -70.81629 | 26217 ft | 381 kts | 14° |
| 2026-05-03 22:30 | 42.36877 | -70.80462 | 25838 ft | 377 kts | 14° |
| 2026-05-03 22:30 | 42.39342 | -70.79305 | 25460 ft | 374 kts | 14° |
| 2026-05-03 22:30 | 42.41791 | -70.78153 | 25051 ft | 371 kts | 14° |
| 2026-05-03 22:31 | 42.44218 | -70.77004 | 24650 ft | 368 kts | 15° |
| 2026-05-03 22:31 | 42.46613 | -70.75772 | 24226 ft | 367 kts | 17° |
| 2026-05-03 22:31 | 42.48974 | -70.74477 | 23813 ft | 365 kts | 17° |
| 2026-05-03 22:31 | 42.51313 | -70.73158 | 23390 ft | 363 kts | 18° |
| 2026-05-03 22:32 | 42.53630 | -70.71842 | 22925 ft | 360 kts | 18° |
| 2026-05-03 22:32 | 42.55925 | -70.70544 | 22521 ft | 354 kts | 17° |
| 2026-05-03 22:32 | 42.58191 | -70.69276 | 22108 ft | 350 kts | 17° |
| 2026-05-03 22:32 | 42.60429 | -70.68036 | 21698 ft | 345 kts | 17° |
| 2026-05-03 22:33 | 42.62641 | -70.66819 | 21297 ft | 341 kts | 17° |
| 2026-05-03 22:33 | 42.64829 | -70.65620 | 20897 ft | 337 kts | 17° |
| 2026-05-03 22:33 | 42.66995 | -70.64430 | 20502 ft | 334 kts | 17° |
| 2026-05-03 22:33 | 42.69130 | -70.63217 | 20103 ft | 331 kts | 18° |
| 2026-05-03 22:34 | 42.71223 | -70.61936 | 19717 ft | 328 kts | 19° |
| 2026-05-03 22:34 | 42.73284 | -70.60627 | 19321 ft | 326 kts | 19° |
| 2026-05-03 22:34 | 42.75323 | -70.59316 | 18950 ft | 323 kts | 20° |
| 2026-05-03 22:34 | 42.77348 | -70.58013 | 18549 ft | 320 kts | 20° |
| 2026-05-03 22:35 | 42.79356 | -70.56726 | 18162 ft | 318 kts | 19° |
| 2026-05-03 22:35 | 42.81350 | -70.55457 | 17739 ft | 315 kts | 19° |
| 2026-05-03 22:35 | 42.83331 | -70.54205 | 17323 ft | 312 kts | 19° |
| 2026-05-03 22:35 | 42.85292 | -70.52970 | 16950 ft | 309 kts | 19° |
| 2026-05-03 22:36 | 42.87231 | -70.51749 | 16574 ft | 305 kts | 19° |
| 2026-05-03 22:36 | 42.89151 | -70.50540 | 16207 ft | 303 kts | 19° |
| 2026-05-03 22:36 | 42.91044 | -70.49343 | 16013 ft | 294 kts | 19° |
| 2026-05-03 22:36 | 42.92882 | -70.48178 | 15761 ft | 289 kts | 19° |
| 2026-05-03 22:37 | 42.94706 | -70.47025 | 15416 ft | 288 kts | 19° |
| 2026-05-03 22:37 | 42.96521 | -70.45880 | 15071 ft | 287 kts | 19° |
| 2026-05-03 22:37 | 42.98329 | -70.44739 | 14726 ft | 286 kts | 19° |
| 2026-05-03 22:37 | 43.00130 | -70.43597 | 14378 ft | 285 kts | 19° |
| 2026-05-03 22:38 | 43.01923 | -70.42446 | 14035 ft | 285 kts | 22° |
| 2026-05-03 22:38 | 43.03605 | -70.41052 | 13692 ft | 287 kts | 27° |
| 2026-05-03 22:38 | 43.05292 | -70.39590 | 13312 ft | 286 kts | 27° |
| 2026-05-03 22:38 | 43.06970 | -70.38136 | 12964 ft | 285 kts | 27° |
| 2026-05-03 22:39 | 43.08638 | -70.36690 | 12613 ft | 283 kts | 27° |
| 2026-05-03 22:39 | 43.10295 | -70.35252 | 12268 ft | 281 kts | 27° |
| 2026-05-03 22:39 | 43.11945 | -70.33819 | 11924 ft | 280 kts | 27° |
| 2026-05-03 22:39 | 43.13606 | -70.32375 | 11575 ft | 278 kts | 27° |
| 2026-05-03 22:40 | 43.15215 | -70.30975 | 11232 ft | 277 kts | 27° |
| 2026-05-03 22:40 | 43.16861 | -70.29545 | 10893 ft | 278 kts | 27° |
| 2026-05-03 22:40 | 43.18491 | -70.28125 | 10600 ft | 283 kts | 28° |
| 2026-05-03 22:40 | 43.20153 | -70.26667 | 10291 ft | 283 kts | 28° |
| 2026-05-03 22:41 | 43.21825 | -70.25194 | 9978 ft | 281 kts | 28° |
| 2026-05-03 22:41 | 43.23443 | -70.23762 | 9679 ft | 280 kts | 28° |
| 2026-05-03 22:41 | 43.25096 | -70.22300 | 9353 ft | 278 kts | 28° |
| 2026-05-03 22:41 | 43.26724 | -70.20880 | 9045 ft | 277 kts | 27° |
| 2026-05-03 22:42 | 43.28334 | -70.19492 | 8745 ft | 276 kts | 27° |
| 2026-05-03 22:42 | 43.29959 | -70.18096 | 8445 ft | 274 kts | 27° |
| 2026-05-03 22:42 | 43.31572 | -70.16709 | 8147 ft | 273 kts | 27° |
| 2026-05-03 22:42 | 43.33190 | -70.15346 | 7840 ft | 271 kts | 25° |
| 2026-05-03 22:43 | 43.34834 | -70.14034 | 7534 ft | 269 kts | 24° |
| 2026-05-03 22:43 | 43.36436 | -70.12782 | 7238 ft | 268 kts | 24° |
| 2026-05-03 22:43 | 43.38054 | -70.11521 | 6943 ft | 266 kts | 24° |
| 2026-05-03 22:43 | 43.39660 | -70.10268 | 6642 ft | 264 kts | 24° |
| 2026-05-03 22:44 | 43.41253 | -70.09023 | 6350 ft | 263 kts | 24° |
| 2026-05-03 22:44 | 43.42859 | -70.07762 | 6062 ft | 261 kts | 24° |
| 2026-05-03 22:44 | 43.44429 | -70.06525 | 5756 ft | 259 kts | 24° |
| 2026-05-03 22:44 | 43.45991 | -70.05288 | 5466 ft | 259 kts | 24° |
| 2026-05-03 22:45 | 43.47546 | -70.04055 | 5172 ft | 258 kts | 24° |
| 2026-05-03 22:45 | 43.49100 | -70.02824 | 4883 ft | 257 kts | 24° |
| 2026-05-03 22:45 | 43.50649 | -70.01596 | 4604 ft | 257 kts | 24° |
| 2026-05-03 22:45 | 43.52195 | -70.00370 | 4308 ft | 256 kts | 24° |
| 2026-05-03 22:46 | 43.53740 | -69.99145 | 4020 ft | 256 kts | 24° |
| 2026-05-03 22:46 | 43.55282 | -69.97924 | 3735 ft | 255 kts | 24° |
| 2026-05-03 22:46 | 43.56913 | -69.97191 | 3617 ft | 243 kts | 358° |
| 2026-05-03 22:46 | 43.58527 | -69.97637 | 3514 ft | 236 kts | 332° |
| 2026-05-03 22:47 | 43.59751 | -69.99092 | 3403 ft | 235 kts | 307° |
| 2026-05-03 22:47 | 43.60651 | -70.00941 | 3296 ft | 228 kts | 305° |
| 2026-05-03 22:47 | 43.61514 | -70.02740 | 3188 ft | 222 kts | 305° |
| 2026-05-03 22:47 | 43.62344 | -70.04492 | 3082 ft | 214 kts | 302° |
| 2026-05-03 22:48 | 43.62787 | -70.06414 | 3002 ft | 208 kts | 280° |
| 2026-05-03 22:48 | 43.62916 | -70.08361 | 3001 ft | 202 kts | 280° |
| 2026-05-03 22:48 | 43.63052 | -70.10280 | 2863 ft | 200 kts | 280° |
| 2026-05-03 22:48 | 43.63186 | -70.12186 | 2624 ft | 198 kts | 280° |
| 2026-05-03 22:49 | 43.63317 | -70.14065 | 2364 ft | 197 kts | 279° |
| 2026-05-03 22:49 | 43.63447 | -70.15943 | 2095 ft | 196 kts | 279° |
| 2026-05-03 22:49 | 43.63570 | -70.17753 | 1835 ft | 183 kts | 279° |
| 2026-05-03 22:49 | 43.63685 | -70.19431 | 1587 ft | 170 kts | 279° |
| 2026-05-03 22:50 | 43.63797 | -70.21044 | 1351 ft | 168 kts | 279° |
| 2026-05-03 22:50 | 43.63897 | -70.22642 | 1117 ft | 166 kts | 278° |
| 2026-05-03 22:50 | 43.63969 | -70.24187 | 899 ft | 158 kts | 277° |
| 2026-05-03 22:50 | 43.64104 | -70.25634 | 749 ft | 149 kts | 280° |
| 2026-05-03 22:51 | 43.64197 | -70.27016 | 534 ft | 142 kts | 277° |
| 2026-05-03 22:51 | 43.64287 | -70.28349 | 264 ft | 139 kts | 280° |
| 2026-05-03 22:51 | 43.64387 | -70.29671 | 102 ft | 137 kts | 278° |
| 2026-05-03 22:51 | 43.64471 | -70.30901 | 64 ft | 114 kts | 276° |
| 2026-05-03 22:52 | 43.64528 | -70.31685 | 74 ft | 40 kts | 274° |
| 2026-05-03 22:52 | 43.64547 | -70.32009 | 77 ft | 18 kts | 275° |
| 2026-05-03 22:52 | 43.64639 | -70.32070 | 78 ft | 16 kts | 35° |
| 2026-05-03 22:52 | 43.64645 | -70.31970 | 76 ft | 11 kts | 90° |
| 2026-05-03 22:53 | 43.64646 | -70.31866 | 77 ft | 11 kts | 90° |
| 2026-05-03 22:53 | 43.64644 | -70.31792 | 80 ft | 12 kts | 92° |
| 2026-05-03 22:53 | 43.64639 | -70.31665 | 76 ft | 15 kts | 95° |
| 2026-05-03 22:53 | 43.64653 | -70.31450 | 67 ft | 16 kts | 44° |
| 2026-05-03 22:54 | 43.64697 | -70.31401 | 68 ft | 10 kts | 56° |
| 2026-05-03 22:54 | 43.64727 | -70.31312 | 69 ft | 4 kts | 66° |
| 2026-05-03 22:54 | 43.64731 | -70.31293 | 77 ft | 0 kts | 76° |
| 2026-05-03 22:55 | 43.64728 | -70.31304 | 66 ft | 0 kts | 31° |
| 2026-05-03 22:56 | 43.64724 | -70.31307 | 66 ft | 0 kts | 31° |
| 2026-05-03 22:56 | 43.64677 | -70.31233 | 58 ft | 0 kts | 34° |
| 2026-05-03 22:56 | 43.64728 | -70.31304 | 66 ft | 0 kts | 31° |